createdAt,value
2023-05-18T00:01:54.251Z,94814.81
2023-05-18T00:04:24.283Z,94822.56
2023-05-18T00:06:56.925Z,94822.25
2023-05-18T00:09:25.657Z,94814.66
2023-05-18T00:11:55.019Z,94821.88
2023-05-18T00:14:23.082Z,94824.56
2023-05-18T00:16:53.925Z,94821.78
2023-05-18T00:19:24.292Z,94825.94
2023-05-18T00:21:56.077Z,94819.69
2023-05-18T00:24:24.242Z,94820.31
2023-05-18T00:26:52.287Z,94828.31
2023-05-18T00:29:21.681Z,94826.03
2023-05-18T00:31:49.739Z,94827.44
2023-05-18T00:34:18.015Z,94820.38
2023-05-18T00:36:46.127Z,94833.88
2023-05-18T00:39:14.132Z,94832.66
2023-05-18T00:41:42.645Z,94834.50
2023-05-18T00:44:10.732Z,94836.06
2023-05-18T00:46:40.217Z,94824.13
2023-05-18T00:49:08.479Z,94834.22
2023-05-18T00:51:36.613Z,94829.28
2023-05-18T00:54:05.538Z,94819.78
2023-05-18T00:56:34.569Z,94812.19
2023-05-18T00:59:03.884Z,94819.50
2023-05-18T01:01:34.805Z,94819.94
2023-05-18T01:04:05.135Z,94816.56
2023-05-18T01:06:36.242Z,94820.56
2023-05-18T01:09:07.537Z,94818.28
2023-05-18T01:11:44.966Z,94817.84
2023-05-18T01:14:19.894Z,94819.06
2023-05-18T01:16:55.575Z,94820.81
2023-05-18T01:19:51.453Z,94831.09
2023-05-18T01:22:39.507Z,94829.88
2023-05-18T01:25:19.788Z,94825.59
2023-05-18T01:27:50.712Z,94826.41
2023-05-18T01:30:19.136Z,94836.41
2023-05-18T01:32:47.766Z,94837.19
2023-05-18T01:35:15.795Z,94827.50
2023-05-18T01:37:43.802Z,94828.56
2023-05-18T01:40:12.043Z,94833.97
2023-05-18T01:42:46.126Z,94824.31
2023-05-18T01:45:22.828Z,94825.16
2023-05-18T01:47:54.520Z,94817.94
2023-05-18T01:50:32.899Z,94827.19
2023-05-18T01:53:09.004Z,94831.38
2023-05-18T01:55:38.852Z,94836.41
2023-05-18T01:58:09.208Z,94834.84
2023-05-18T02:00:38.802Z,94835.72
2023-05-18T02:03:07.197Z,94834.25
2023-05-18T02:05:35.285Z,94841.56
2023-05-18T02:08:03.446Z,94832.66
2023-05-18T02:10:31.575Z,94834.13
2023-05-18T02:12:59.628Z,94841.13
2023-05-18T02:15:27.724Z,94842.34
2023-05-18T02:17:58.566Z,94834.56
2023-05-18T02:20:28.937Z,94838.16
2023-05-18T02:22:58.308Z,94835.91
2023-05-18T02:25:26.434Z,94833.25
2023-05-18T02:27:54.517Z,94841.91
2023-05-18T02:30:22.593Z,94836.84
2023-05-18T02:32:50.675Z,94837.66
2023-05-18T02:35:20.083Z,94831.34
2023-05-18T02:37:50.214Z,94839.88
2023-05-18T02:40:18.424Z,94831.28
2023-05-18T02:42:46.368Z,94840.59
2023-05-18T02:45:14.420Z,94849.03
2023-05-18T02:47:44.100Z,94848.28
2023-05-18T02:50:12.708Z,94854.53
2023-05-18T02:52:42.293Z,94860.75
2023-05-18T02:55:10.954Z,94856.09
2023-05-18T02:57:38.911Z,94862.41
2023-05-18T03:00:11.726Z,94867.47
2023-05-18T03:02:40.452Z,94872.50
2023-05-18T03:05:09.767Z,94873.66
2023-05-18T03:07:37.869Z,94888.72
2023-05-18T03:10:09.022Z,94893.22
2023-05-18T03:12:37.037Z,94890.16
2023-05-18T03:15:05.601Z,94891.09
2023-05-18T03:17:33.889Z,94895.09
2023-05-18T03:20:04.659Z,94895.19
2023-05-18T03:22:32.668Z,94900.59
2023-05-18T03:25:02.423Z,94909.13
2023-05-18T03:27:31.927Z,94912.97
2023-05-18T03:29:59.982Z,94909.94
2023-05-18T03:32:28.629Z,94915.75
2023-05-18T03:34:56.690Z,94913.84
2023-05-18T03:37:24.655Z,94908.88
2023-05-18T03:39:52.661Z,94906.88
2023-05-18T03:42:21.184Z,94914.63
2023-05-18T03:44:50.846Z,94917.66
2023-05-18T03:47:18.920Z,94909.50
2023-05-18T03:49:47.059Z,94912.88
2023-05-18T03:52:16.034Z,94926.81
2023-05-18T03:54:44.322Z,94928.47
2023-05-18T03:57:12.330Z,94929.34
2023-05-18T03:59:40.469Z,94932.94
2023-05-18T04:02:11.495Z,94929.53
2023-05-18T04:04:42.139Z,94930.69
2023-05-18T04:07:10.236Z,94936.50
2023-05-18T04:09:38.325Z,94936.50
2023-05-18T04:12:07.065Z,94935.38
2023-05-18T04:14:35.286Z,94935.66
2023-05-18T04:17:05.292Z,94940.25
2023-05-18T04:19:35.153Z,94945.75
2023-05-18T04:22:05.055Z,94950.97
2023-05-18T04:24:34.657Z,94950.28
2023-05-18T04:27:03.883Z,94939.91
2023-05-18T04:29:31.997Z,94941.91
2023-05-18T04:32:01.151Z,94942.78
2023-05-18T04:34:29.940Z,94940.34
2023-05-18T04:36:59.384Z,94950.47
2023-05-18T04:39:27.870Z,94949.16
2023-05-18T04:41:58.475Z,94948.47
2023-05-18T04:44:27.570Z,94950.13
2023-05-18T04:46:56.341Z,94954.91
2023-05-18T04:49:26.256Z,94962.06
2023-05-18T04:51:57.188Z,94956.66
2023-05-18T04:54:28.283Z,94959.81
2023-05-18T04:56:56.390Z,94960.25
2023-05-18T04:59:26.443Z,94974.19
2023-05-18T05:01:55.011Z,94977.84
2023-05-18T05:04:23.896Z,94982.38
2023-05-18T05:06:51.917Z,94991.03
2023-05-18T05:09:20.103Z,94983.94
2023-05-18T05:11:49.476Z,94988.59
2023-05-18T05:14:17.756Z,94996.25
2023-05-18T05:16:45.892Z,94996.59
2023-05-18T05:19:14.122Z,94993.19
2023-05-18T05:21:42.139Z,94998.16
2023-05-18T05:24:10.264Z,95006.09
2023-05-18T05:26:38.249Z,94997.44
2023-05-18T05:29:07.868Z,95007.41
2023-05-18T05:31:36.191Z,95003.09
2023-05-18T05:34:04.281Z,95011.22
2023-05-18T05:36:33.933Z,95017.50
2023-05-18T05:39:01.926Z,95014.47
2023-05-18T05:41:31.761Z,95012.97
2023-05-18T05:44:00.528Z,95011.50
2023-05-18T05:46:30.054Z,95017.25
2023-05-18T05:48:58.005Z,95017.16
2023-05-18T05:51:26.112Z,95017.41
2023-05-18T05:53:54.237Z,95020.19
2023-05-18T05:56:23.104Z,95026.06
2023-05-18T05:58:51.933Z,95017.59
2023-05-18T06:01:20.009Z,95024.59
2023-05-18T06:03:49.548Z,95020.72
2023-05-18T06:06:17.613Z,95026.50
2023-05-18T06:08:45.600Z,95027.72
2023-05-18T06:11:13.952Z,95026.25
2023-05-18T06:13:41.999Z,95020.84
2023-05-18T06:16:10.003Z,95027.28
2023-05-18T06:18:38.161Z,95031.13
2023-05-18T06:21:07.725Z,95040.00
2023-05-18T06:23:35.757Z,95031.53
2023-05-18T06:26:03.893Z,95032.41
2023-05-18T06:28:31.992Z,95042.66
2023-05-18T06:31:00.519Z,95044.75
2023-05-18T06:33:28.654Z,95041.09
2023-05-18T06:35:57.147Z,95040.75
2023-05-18T06:38:26.698Z,95046.41
2023-05-18T06:40:54.897Z,95053.50
2023-05-18T06:43:25.493Z,95054.19
2023-05-18T06:45:53.721Z,95044.41
2023-05-18T06:48:22.469Z,95052.78
2023-05-18T06:50:50.683Z,95049.63
2023-05-18T06:53:18.661Z,95064.81
2023-05-18T06:55:48.238Z,95067.53
2023-05-18T06:58:16.354Z,95071.97
2023-05-18T07:00:44.302Z,95075.91
2023-05-18T07:03:12.662Z,95079.94
2023-05-18T07:05:41.248Z,95081.78
2023-05-18T07:08:09.937Z,95072.50
2023-05-18T07:10:38.463Z,95087.63
2023-05-18T07:13:07.794Z,95095.69
2023-05-18T07:15:35.911Z,95092.66
2023-05-18T07:18:05.177Z,95087.91
2023-05-18T07:20:33.269Z,95100.56
2023-05-18T07:23:01.549Z,95102.13
2023-05-18T07:25:29.836Z,95106.63
2023-05-18T07:27:58.670Z,95107.88
2023-05-18T07:30:28.276Z,95109.00
2023-05-18T07:32:56.957Z,95108.63
2023-05-18T07:35:26.480Z,95113.31
2023-05-18T07:37:55.140Z,95111.41
2023-05-18T07:40:23.546Z,95121.09
2023-05-18T07:42:51.533Z,95122.69
2023-05-18T07:45:19.578Z,95121.50
2023-05-18T07:47:49.095Z,95130.06
2023-05-18T07:50:17.195Z,95133.66
2023-05-18T07:52:45.382Z,95135.44
2023-05-18T07:55:14.093Z,95136.63
2023-05-18T07:57:42.784Z,95139.94
2023-05-18T08:00:12.268Z,95137.72
2023-05-18T08:02:40.644Z,95144.47
2023-05-18T08:05:11.181Z,95143.59
2023-05-18T08:07:39.414Z,95144.25
2023-05-18T08:10:08.080Z,95151.28
2023-05-18T08:12:38.838Z,95156.25
2023-05-18T08:15:08.330Z,95157.47
2023-05-18T08:17:36.347Z,95160.47
2023-05-18T08:20:06.131Z,95158.34
2023-05-18T08:22:35.525Z,95169.94
2023-05-18T08:25:04.239Z,95173.38
2023-05-18T08:27:32.493Z,95181.38
2023-05-18T08:30:00.845Z,95177.34
2023-05-18T08:32:28.986Z,95180.25
2023-05-18T08:34:57.124Z,95179.22
2023-05-18T08:37:29.468Z,95185.06
2023-05-18T08:40:00.994Z,95190.53
2023-05-18T08:42:45.602Z,95201.56
2023-05-18T08:45:25.079Z,95205.97
2023-05-18T08:47:57.659Z,95193.13
2023-05-18T08:50:28.079Z,95200.47
2023-05-18T08:52:57.249Z,95209.09
2023-05-18T08:55:27.857Z,95202.81
2023-05-18T08:58:00.099Z,95218.13
2023-05-18T09:00:28.460Z,95216.75
2023-05-18T09:02:56.951Z,95213.81
2023-05-18T09:05:25.471Z,95215.63
2023-05-18T09:07:53.996Z,95220.13
2023-05-18T09:10:26.380Z,95215.53
2023-05-18T09:12:58.007Z,95222.38
2023-05-18T09:15:27.117Z,95228.34
2023-05-18T09:17:55.981Z,95225.53
2023-05-18T09:20:26.520Z,95228.34
2023-05-18T09:22:54.928Z,95226.78
2023-05-18T09:25:25.138Z,95239.41
2023-05-18T09:27:53.459Z,95240.72
2023-05-18T09:30:22.979Z,95234.03
2023-05-18T09:32:51.251Z,95238.56
2023-05-18T09:35:19.895Z,95207.53
2023-05-18T09:37:48.453Z,95236.13
2023-05-18T09:40:16.842Z,95243.75
2023-05-18T09:42:46.123Z,95245.53
2023-05-18T09:45:19.518Z,95229.53
2023-05-18T09:47:51.635Z,95250.66
2023-05-18T09:50:20.572Z,95251.28
2023-05-18T09:52:49.449Z,95236.19
2023-05-18T09:55:18.361Z,95256.41
2023-05-18T09:57:47.588Z,95252.00
2023-05-18T10:00:17.065Z,95255.16
2023-05-18T10:02:49.079Z,95242.22
2023-05-18T10:05:23.075Z,95252.81
2023-05-18T10:07:52.664Z,95261.09
2023-05-18T10:10:21.805Z,95262.41
2023-05-18T10:12:52.170Z,95272.22
2023-05-18T10:15:22.883Z,95257.44
2023-05-18T10:20:27.070Z,95263.22
2023-05-18T10:22:57.221Z,95264.25
2023-05-18T10:25:27.921Z,95271.50
2023-05-18T10:27:58.506Z,95266.44
2023-05-18T10:30:28.612Z,95276.16
2023-05-18T10:32:58.231Z,95275.25
2023-05-18T10:35:30.266Z,95262.94
2023-05-18T10:38:00.553Z,95284.53
2023-05-18T10:40:30.324Z,95293.44
2023-05-18T10:42:59.632Z,95257.44
2023-05-18T10:45:28.251Z,95290.09
2023-05-18T10:47:58.294Z,95292.13
2023-05-18T10:50:29.224Z,95298.78
2023-05-18T10:52:59.874Z,95300.44
2023-05-18T10:55:29.393Z,95311.00
2023-05-18T10:58:05.031Z,95253.84
2023-05-18T11:00:36.869Z,95301.28
2023-05-18T11:03:08.990Z,95300.84
2023-05-18T11:05:40.099Z,95311.75
2023-05-18T11:08:08.845Z,95299.38
2023-05-18T11:10:41.131Z,95313.63
2023-05-18T11:13:09.565Z,95319.63
2023-05-18T11:16:06.837Z,95320.84
2023-05-18T11:18:41.290Z,95326.16
2023-05-18T11:21:51.876Z,95304.28
2023-05-18T11:24:24.901Z,95333.16
2023-05-18T11:26:54.690Z,95330.63
2023-05-18T11:29:25.874Z,95311.19
2023-05-18T11:31:55.381Z,95331.59
2023-05-18T11:34:39.390Z,95355.88
2023-05-18T11:37:10.645Z,95351.06
2023-05-18T11:39:48.048Z,95338.38
2023-05-18T11:42:20.647Z,95332.16
2023-05-18T11:44:53.945Z,95337.94
2023-05-18T11:47:22.176Z,95354.19
2023-05-18T11:49:53.208Z,95344.31
2023-05-18T11:52:23.824Z,95355.88
2023-05-18T11:54:53.709Z,95350.94
2023-05-18T11:57:26.726Z,95354.84
2023-05-18T12:00:00.192Z,95345.22
2023-05-18T12:02:29.527Z,95344.59
2023-05-18T12:05:00.390Z,95359.63
2023-05-18T12:07:32.408Z,95353.34
2023-05-18T12:10:01.782Z,95358.78
2023-05-18T12:12:30.477Z,95357.41
2023-05-18T12:14:59.628Z,95335.59
2023-05-18T12:17:39.327Z,95375.81
2023-05-18T12:20:09.275Z,95368.94
2023-05-18T12:22:38.789Z,95364.19
2023-05-18T12:25:08.245Z,95379.94
2023-05-18T12:27:39.828Z,95377.56
2023-05-18T12:30:12.020Z,95367.66
2023-05-18T12:32:40.348Z,95379.28
2023-05-18T12:35:09.669Z,95376.44
2023-05-18T12:37:45.937Z,95380.06
2023-05-18T12:40:17.515Z,95381.41
2023-05-18T12:42:55.345Z,95386.38
2023-05-18T12:45:27.965Z,95362.72
2023-05-18T12:47:56.520Z,95376.31
2023-05-18T12:50:27.089Z,95352.88
2023-05-18T12:52:57.731Z,95382.47
2023-05-18T12:55:26.673Z,95386.41
2023-05-18T12:58:03.228Z,95377.94
2023-05-18T13:00:34.850Z,95376.81
2023-05-18T13:03:11.855Z,95388.00
2023-05-18T13:05:44.262Z,95387.44
2023-05-18T13:08:18.881Z,95387.66
2023-05-18T13:10:55.295Z,95389.63
2023-05-18T13:13:29.752Z,95383.50
2023-05-18T13:15:59.623Z,95383.16
2023-05-18T13:18:28.604Z,95381.53
2023-05-18T13:20:58.765Z,95369.03
2023-05-18T13:23:30.134Z,95377.09
2023-05-18T13:25:58.904Z,95383.16
2023-05-18T13:28:28.662Z,95378.72
2023-05-18T13:30:56.837Z,95393.50
2023-05-18T13:33:24.978Z,95387.09
2023-05-18T13:35:53.003Z,95389.97
2023-05-18T13:38:21.093Z,95390.97
2023-05-18T13:40:50.553Z,95393.81
2023-05-18T13:43:18.517Z,95392.25
2023-05-18T13:45:46.530Z,95388.75
2023-05-18T13:48:15.077Z,95398.81
2023-05-18T13:50:43.138Z,95386.03
2023-05-18T13:53:11.161Z,95401.19
2023-05-18T13:55:39.362Z,95388.56
2023-05-18T13:58:08.721Z,95401.00
2023-05-18T14:00:37.198Z,95386.75
2023-05-18T14:03:06.517Z,95393.31
2023-05-18T14:05:34.694Z,95387.28
2023-05-18T14:08:02.717Z,95389.19
2023-05-18T14:10:31.420Z,95390.06
2023-05-18T14:12:59.810Z,95382.78
2023-05-18T14:15:29.249Z,95362.34
2023-05-18T14:17:57.859Z,95395.41
2023-05-18T14:20:26.250Z,95389.91
2023-05-18T14:22:54.246Z,95393.50
2023-05-18T14:25:22.811Z,95399.97
2023-05-18T14:27:50.770Z,95389.81
2023-05-18T14:30:18.975Z,95397.75
2023-05-18T14:32:48.549Z,95397.13
2023-05-18T14:35:16.766Z,95394.06
2023-05-18T14:37:44.835Z,95393.56
2023-05-18T14:40:14.445Z,95389.38
2023-05-18T14:42:42.422Z,95394.91
2023-05-18T14:45:11.442Z,95374.22
2023-05-18T14:47:39.540Z,95400.53
2023-05-18T14:50:10.139Z,95351.63
2023-05-18T14:52:38.582Z,95354.16
2023-05-18T14:55:07.462Z,95392.16
2023-05-18T14:57:35.519Z,95404.84
2023-05-18T15:00:03.783Z,95407.41
2023-05-18T15:02:32.144Z,95401.63
2023-05-18T15:05:00.531Z,95396.47
2023-05-18T15:07:30.366Z,95392.78
2023-05-18T15:09:58.460Z,95392.19
2023-05-18T15:12:27.019Z,95394.63
2023-05-18T15:14:55.095Z,95389.81
2023-05-18T15:17:23.143Z,95392.16
2023-05-18T15:19:51.249Z,95384.53
2023-05-18T15:22:19.316Z,95357.34
2023-05-18T15:24:48.633Z,95380.25
2023-05-18T15:27:16.980Z,95355.81
2023-05-18T15:29:45.020Z,95382.34
2023-05-18T15:32:13.485Z,95386.34
2023-05-18T15:34:42.025Z,95399.53
2023-05-18T15:37:10.035Z,95391.88
2023-05-18T15:39:39.835Z,95391.34
2023-05-18T15:42:09.386Z,95396.88
2023-05-18T15:44:37.422Z,95397.50
2023-05-18T15:47:06.176Z,95398.72
2023-05-18T15:49:37.350Z,95406.94
2023-05-18T15:52:05.766Z,95398.88
2023-05-18T15:54:33.979Z,95364.00
2023-05-18T15:57:03.783Z,95403.66
2023-05-18T15:59:33.288Z,95397.59
2023-05-18T16:02:01.453Z,95361.09
2023-05-18T16:04:29.482Z,95380.06
2023-05-18T16:06:57.711Z,95389.63
2023-05-18T16:09:26.014Z,95385.75
2023-05-18T16:11:54.039Z,95387.53
2023-05-18T16:14:22.273Z,95382.78
2023-05-18T16:16:52.227Z,95381.13
2023-05-18T16:19:20.412Z,95391.78
2023-05-18T16:21:49.274Z,95397.56
2023-05-18T16:24:17.540Z,95421.09
2023-05-18T16:26:46.750Z,95426.06
2023-05-18T16:29:14.721Z,95420.19
2023-05-18T16:31:45.220Z,95422.13
2023-05-18T16:34:14.715Z,95426.84
2023-05-18T16:36:42.786Z,95429.34
2023-05-18T16:39:11.152Z,95437.28
2023-05-18T16:41:39.681Z,95424.13
2023-05-18T16:44:07.819Z,95432.38
2023-05-18T16:46:36.051Z,95427.41
2023-05-18T16:49:05.106Z,95428.09
2023-05-18T16:51:34.506Z,95429.47
2023-05-18T16:54:03.117Z,95429.72
2023-05-18T16:56:31.247Z,95434.22
2023-05-18T16:58:59.438Z,95436.47
2023-05-18T17:01:29.024Z,95302.25
2023-05-18T17:03:57.881Z,95442.03
2023-05-18T17:06:26.732Z,95444.72
2023-05-18T17:08:58.697Z,95436.59
2023-05-18T17:11:27.836Z,95443.00
2023-05-18T17:13:58.272Z,95436.09
2023-05-18T17:16:27.395Z,95448.97
2023-05-18T17:18:57.696Z,95452.03
2023-05-18T17:21:28.447Z,95433.91
2023-05-18T17:23:58.017Z,95446.41
2023-05-18T17:26:30.481Z,95456.56
2023-05-18T17:28:58.694Z,95436.94
2023-05-18T17:31:27.513Z,95448.75
2023-05-18T17:33:56.180Z,95472.81
2023-05-18T17:36:24.820Z,95458.13
2023-05-18T17:38:56.415Z,95453.84
2023-05-18T17:41:26.142Z,95459.72
2023-05-18T17:43:54.135Z,95460.75
2023-05-18T17:46:22.278Z,95452.06
2023-05-18T17:48:50.357Z,95456.78
2023-05-18T17:51:18.421Z,95468.75
2023-05-18T17:53:46.471Z,95453.06
2023-05-18T17:56:14.550Z,95465.16
2023-05-18T17:58:43.973Z,95477.53
2023-05-18T18:01:12.369Z,95479.56
2023-05-18T18:03:40.539Z,95473.16
2023-05-18T18:06:08.869Z,95482.06
2023-05-18T18:08:37.878Z,95484.34
2023-05-18T18:11:09.018Z,95483.78
2023-05-18T18:13:37.698Z,95491.81
2023-05-18T18:16:08.296Z,95471.63
2023-05-18T18:18:37.309Z,95495.59
2023-05-18T18:21:06.377Z,95493.25
2023-05-18T18:23:34.578Z,95494.06
2023-05-18T18:26:04.209Z,95487.72
2023-05-18T18:28:32.490Z,95508.69
2023-05-18T18:31:01.019Z,95526.41
2023-05-18T18:33:30.635Z,95518.66
2023-05-18T18:35:59.001Z,95478.06
2023-05-18T18:38:28.969Z,95386.22
2023-05-18T18:41:01.725Z,95523.34
2023-05-18T18:43:30.070Z,95521.78
2023-05-18T18:45:58.201Z,95509.06
2023-05-18T18:48:26.910Z,95474.56
2023-05-18T18:50:56.322Z,95509.84
2023-05-18T18:53:24.373Z,95475.34
2023-05-18T18:55:53.070Z,95500.59
2023-05-18T18:58:24.105Z,95503.75
2023-05-18T19:00:52.195Z,95506.81
2023-05-18T19:03:21.788Z,95510.31
2023-05-18T19:05:50.758Z,95514.56
2023-05-18T19:08:20.260Z,95513.78
2023-05-18T19:10:48.491Z,95510.19
2023-05-18T19:13:16.536Z,95512.44
2023-05-18T19:15:45.588Z,95517.72
2023-05-18T19:18:13.821Z,95521.13
2023-05-18T19:20:41.933Z,95489.91
2023-05-18T19:23:10.100Z,95498.59
2023-05-18T19:25:39.462Z,95488.66
2023-05-18T19:28:09.067Z,95520.56
2023-05-18T19:30:37.126Z,95530.72
2023-05-18T19:33:05.160Z,95534.66
2023-05-18T19:35:33.774Z,95537.38
2023-05-18T19:38:03.250Z,95542.09
2023-05-18T19:40:32.570Z,95534.31
2023-05-18T19:43:02.051Z,95494.72
2023-05-18T19:45:33.715Z,95544.34
2023-05-18T19:48:02.062Z,95538.84
2023-05-18T19:50:33.492Z,95540.84
2023-05-18T19:53:01.520Z,95553.69
2023-05-18T19:55:29.733Z,95561.94
2023-05-18T19:57:58.513Z,95561.47
2023-05-18T20:00:28.096Z,95560.03
2023-05-18T20:02:56.486Z,95567.56
2023-05-18T20:05:25.613Z,95521.75
2023-05-18T20:07:53.685Z,95570.72
2023-05-18T20:10:21.850Z,95572.97
2023-05-18T20:12:50.401Z,95580.50
2023-05-18T20:15:19.190Z,95578.16
2023-05-18T20:17:49.013Z,95558.53
2023-05-18T20:20:17.588Z,95577.03
2023-05-18T20:22:45.601Z,95580.84
2023-05-18T20:25:13.603Z,95580.84
2023-05-18T20:27:41.607Z,95574.84
2023-05-18T20:30:10.402Z,95582.88
2023-05-18T20:32:38.366Z,95592.53
2023-05-18T20:35:08.299Z,95592.44
2023-05-18T20:37:36.341Z,95587.13
2023-05-18T20:40:09.093Z,95587.09
2023-05-18T20:42:40.627Z,95597.91
2023-05-18T20:45:09.804Z,95591.44
2023-05-18T20:47:37.931Z,95596.19
2023-05-18T20:50:09.176Z,95595.41
2023-05-18T20:52:37.338Z,95585.16
2023-05-18T20:55:05.800Z,95573.78
2023-05-18T20:57:34.883Z,95581.53
2023-05-18T21:00:02.995Z,95584.38
2023-05-18T21:02:33.204Z,95583.88
2023-05-18T21:05:04.478Z,95579.69
2023-05-18T21:07:35.046Z,95583.66
2023-05-18T21:10:03.498Z,95587.81
2023-05-18T21:12:32.077Z,95593.31
2023-05-18T21:15:00.259Z,95595.56
2023-05-18T21:17:28.369Z,95589.34
2023-05-18T21:19:56.671Z,95574.47
2023-05-18T21:22:24.734Z,95569.78
2023-05-18T21:24:54.156Z,95576.38
2023-05-18T21:27:22.188Z,95580.47
2023-05-18T21:29:50.177Z,95600.16
2023-05-18T21:32:18.318Z,95596.97
2023-05-18T21:34:46.388Z,95607.78
2023-05-18T21:37:14.521Z,95602.25
2023-05-18T21:39:44.088Z,95597.50
2023-05-18T21:42:13.921Z,95604.22
2023-05-18T21:44:41.956Z,95600.84
2023-05-18T21:47:10.357Z,95599.59
2023-05-18T21:49:38.457Z,95595.66
2023-05-18T21:52:06.634Z,95590.13
2023-05-18T21:54:35.571Z,95594.72
2023-05-18T21:57:03.672Z,95594.72
2023-05-18T21:59:33.143Z,95594.25
2023-05-18T22:02:01.114Z,95589.06
2023-05-18T22:04:29.283Z,95593.53
2023-05-18T22:06:57.300Z,95600.22
2023-05-18T22:09:25.374Z,95597.84
2023-05-18T22:11:53.315Z,95602.97
2023-05-18T22:14:21.436Z,95593.16
2023-05-18T22:16:50.998Z,95594.44
2023-05-18T22:19:19.117Z,95593.59
2023-05-18T22:21:47.130Z,95605.63
2023-05-18T22:24:15.140Z,95606.59
2023-05-18T22:26:43.337Z,95590.44
2023-05-18T22:29:11.527Z,95594.84
2023-05-18T22:31:39.566Z,95592.22
2023-05-18T22:34:09.022Z,95596.00
2023-05-18T22:36:36.979Z,95587.75
2023-05-18T22:39:05.298Z,95590.13
2023-05-18T22:41:33.312Z,95596.97
2023-05-18T22:44:01.723Z,95585.50
2023-05-18T22:46:30.510Z,95576.50
2023-05-18T22:48:59.256Z,95587.75
2023-05-18T22:51:28.632Z,95585.69
2023-05-18T22:53:56.784Z,95591.75
2023-05-18T22:56:24.931Z,95595.09
2023-05-18T22:58:53.044Z,95578.63
2023-05-18T23:01:21.156Z,95590.63
2023-05-18T23:03:49.207Z,95591.75
2023-05-18T23:06:17.591Z,95592.22
2023-05-18T23:08:46.925Z,95595.25
2023-05-18T23:11:18.941Z,95587.31
2023-05-18T23:13:47.091Z,95579.06
2023-05-18T23:16:15.156Z,95583.47
2023-05-18T23:18:45.491Z,95574.91
2023-05-18T23:21:14.705Z,95579.38
2023-05-18T23:23:42.810Z,95559.91
2023-05-18T23:26:12.763Z,95578.09
2023-05-18T23:28:40.823Z,95573.50
2023-05-18T23:31:08.817Z,95576.81
2023-05-18T23:33:37.403Z,95572.19
2023-05-18T23:36:07.314Z,95575.38
2023-05-18T23:38:37.816Z,95563.94
2023-05-18T23:41:07.176Z,95568.56
2023-05-18T23:43:37.163Z,95569.31
2023-05-18T23:46:06.682Z,95570.28
2023-05-18T23:48:35.190Z,95567.88
2023-05-18T23:51:04.125Z,95570.75
2023-05-18T23:53:33.545Z,95561.06
2023-05-18T23:56:03.017Z,95574.63
2023-05-18T23:58:33.365Z,95571.31
